Terminal Aerodrome Forecast
Issued by NWS Billings, MT

Home | Current Version | Previous Version | Text Only | Print | Product List | Glossary On
Versions: 1 2 3 4 5 6 7 8 9 10 11 12 13 14 15 16 17 18 19 20 21 22 23 24 25 26
542
FTUS45 KBYZ 221132
TAFMLS
TAF
KMLS 221132Z 2212/2312 29008KT P6SM SCT120
     FM221300 29007KT P6SM VCSH BKN050
     FM221400 32012KT P6SM -SHRA SCT030 BKN050
     FM221600 34015G23KT P6SM BKN060
     FM230200 36009KT P6SM SCT100=

USA.gov is the U.S. government's official web portal to all federal, state and local government web resources and services.